Main page
METAR-TAF:

METAR-TAF

Airports :

Weno, Weno Island, Micronesia

Chuuk International Airport

latitude: 07-28N, longitude: 151-51E, elevation: 3 m

Current weather observation

The report was made 31 minutes ago, at 23:50 UTC
Wind 7 kt from the North/Northeast
Temperature 31°C
Humidity 79%
Pressure 1011 hPa
Visibility: 24.1 km
Few clouds at a height of 1400 ft
Scattered clouds at a height of 29000 ft

METAR: PTKK 192350Z 03007KT 15SM FEW014 SCT290 31/27 A2984 RMK SLP106 8/101 T03060268 10306 20261 58003

Time: 10:21 (00:21 UTC)

Forecast

The report was made 41 minutes ago, at 23:40 UTC
Forecast valid from 20 at 00 UTC to 20 at 24 UTC
Wind 6 kt from the Northeast
Visibility: 10 km
Few clouds at a height of 2000 ft

TAF: PTKK 192340Z 2000/2024 04006KT P6SM FEW020

Weather observations and forecasts of more than 4000 airports (METAR and TAF reports).

The available stations are represented by yellow and red dots on the map.

Hover mouse over dot to see the name of the station.

Then click to see weather observations and forecasts.

To change the map : click on the green buttons with a black cross to zoom in, on the green button with a dash to zoom out, or on the green arrows for adjacent maps.


METAR-TAF: